sensor_id;sensor_type;location;lat;lon;timestamp;temperature;humidity
18930;DHT22;43305;52.186;5.598;2022-07-29T00:01:14;16.30;99.90
18930;DHT22;43305;52.186;5.598;2022-07-29T00:03:42;16.20;99.90
18930;DHT22;43305;52.186;5.598;2022-07-29T00:06:09;16.20;99.90
18930;DHT22;43305;52.186;5.598;2022-07-29T00:08:36;16.20;99.90
18930;DHT22;43305;52.186;5.598;2022-07-29T00:11:08;16.10;99.90
18930;DHT22;43305;52.186;5.598;2022-07-29T00:13:35;16.10;99.90
18930;DHT22;43305;52.186;5.598;2022-07-29T00:16:03;16.10;99.90
18930;DHT22;43305;52.186;5.598;2022-07-29T00:18:32;16.00;99.90
18930;DHT22;43305;52.186;5.598;2022-07-29T00:20:59;16.00;99.90
18930;DHT22;43305;52.186;5.598;2022-07-29T00:23:26;16.00;99.90
18930;DHT22;43305;52.186;5.598;2022-07-29T00:25:53;16.00;99.90
18930;DHT22;43305;52.186;5.598;2022-07-29T00:28:20;16.00;99.90
18930;DHT22;43305;52.186;5.598;2022-07-29T00:30:47;15.90;99.90
18930;DHT22;43305;52.186;5.598;2022-07-29T00:33:14;16.00;99.90
18930;DHT22;43305;52.186;5.598;2022-07-29T00:35:42;15.90;99.90
18930;DHT22;43305;52.186;5.598;2022-07-29T00:38:10;15.90;99.90
18930;DHT22;43305;52.186;5.598;2022-07-29T00:40:38;15.90;99.90
18930;DHT22;43305;52.186;5.598;2022-07-29T00:43:06;15.90;99.90
18930;DHT22;43305;52.186;5.598;2022-07-29T00:45:33;15.90;99.90
18930;DHT22;43305;52.186;5.598;2022-07-29T00:48:00;15.80;99.90
18930;DHT22;43305;52.186;5.598;2022-07-29T00:50:28;15.80;99.90
18930;DHT22;43305;52.186;5.598;2022-07-29T00:52:56;15.80;99.90
18930;DHT22;43305;52.186;5.598;2022-07-29T00:55:23;15.80;99.90
18930;DHT22;43305;52.186;5.598;2022-07-29T00:57:52;15.80;99.90
18930;DHT22;43305;52.186;5.598;2022-07-29T01:00:22;15.80;99.90
18930;DHT22;43305;52.186;5.598;2022-07-29T01:02:49;15.70;99.90
18930;DHT22;43305;52.186;5.598;2022-07-29T01:05:18;15.70;99.90
18930;DHT22;43305;52.186;5.598;2022-07-29T01:07:47;15.70;99.90
18930;DHT22;43305;52.186;5.598;2022-07-29T01:10:16;15.70;99.90
18930;DHT22;43305;52.186;5.598;2022-07-29T01:12:47;15.70;99.90
18930;DHT22;43305;52.186;5.598;2022-07-29T01:15:14;15.70;99.90
18930;DHT22;43305;52.186;5.598;2022-07-29T01:17:52;15.60;99.90
18930;DHT22;43305;52.186;5.598;2022-07-29T01:20:25;15.60;99.90
18930;DHT22;43305;52.186;5.598;2022-07-29T01:23:13;15.60;99.90
18930;DHT22;43305;52.186;5.598;2022-07-29T01:25:59;15.60;99.90
18930;DHT22;43305;52.186;5.598;2022-07-29T01:28:47;15.60;99.90
18930;DHT22;43305;52.186;5.598;2022-07-29T01:31:20;15.60;99.90
18930;DHT22;43305;52.186;5.598;2022-07-29T01:33:55;15.60;99.90
18930;DHT22;43305;52.186;5.598;2022-07-29T01:36:29;15.60;99.90
18930;DHT22;43305;52.186;5.598;2022-07-29T01:39:01;15.50;99.90
18930;DHT22;43305;52.186;5.598;2022-07-29T01:41:32;15.60;99.90
18930;DHT22;43305;52.186;5.598;2022-07-29T01:44:11;15.50;99.90
18930;DHT22;43305;52.186;5.598;2022-07-29T01:46:42;15.60;99.90
18930;DHT22;43305;52.186;5.598;2022-07-29T01:49:14;15.50;99.90
18930;DHT22;43305;52.186;5.598;2022-07-29T01:51:47;15.50;99.90
18930;DHT22;43305;52.186;5.598;2022-07-29T01:54:20;15.50;99.90
18930;DHT22;43305;52.186;5.598;2022-07-29T01:56:51;15.50;99.90
18930;DHT22;43305;52.186;5.598;2022-07-29T01:59:20;15.40;99.90
18930;DHT22;43305;52.186;5.598;2022-07-29T02:01:50;15.40;99.90
18930;DHT22;43305;52.186;5.598;2022-07-29T02:04:19;15.40;99.90
18930;DHT22;43305;52.186;5.598;2022-07-29T02:06:49;15.40;99.90
18930;DHT22;43305;52.186;5.598;2022-07-29T02:09:17;15.40;99.90
18930;DHT22;43305;52.186;5.598;2022-07-29T02:11:50;15.40;99.90
18930;DHT22;43305;52.186;5.598;2022-07-29T02:14:23;15.40;99.90
18930;DHT22;43305;52.186;5.598;2022-07-29T02:16:52;15.40;99.90
18930;DHT22;43305;52.186;5.598;2022-07-29T02:19:23;15.40;99.90
18930;DHT22;43305;52.186;5.598;2022-07-29T02:21:54;15.40;99.90
18930;DHT22;43305;52.186;5.598;2022-07-29T02:24:23;15.40;99.90
18930;DHT22;43305;52.186;5.598;2022-07-29T02:26:53;15.40;99.90
18930;DHT22;43305;52.186;5.598;2022-07-29T02:29:25;15.40;99.90
18930;DHT22;43305;52.186;5.598;2022-07-29T02:31:55;15.40;99.90
18930;DHT22;43305;52.186;5.598;2022-07-29T02:34:24;15.40;99.90
18930;DHT22;43305;52.186;5.598;2022-07-29T02:36:52;15.40;99.90
18930;DHT22;43305;52.186;5.598;2022-07-29T02:39:21;15.40;99.90
18930;DHT22;43305;52.186;5.598;2022-07-29T02:41:52;15.40;99.90
18930;DHT22;43305;52.186;5.598;2022-07-29T02:44:20;15.30;99.90
18930;DHT22;43305;52.186;5.598;2022-07-29T02:46:52;15.30;99.90
18930;DHT22;43305;52.186;5.598;2022-07-29T02:49:31;15.30;99.90
18930;DHT22;43305;52.186;5.598;2022-07-29T02:52:03;15.30;99.90
18930;DHT22;43305;52.186;5.598;2022-07-29T02:54:33;15.30;99.90
18930;DHT22;43305;52.186;5.598;2022-07-29T02:57:08;15.30;99.90
18930;DHT22;43305;52.186;5.598;2022-07-29T02:59:36;15.30;99.90
18930;DHT22;43305;52.186;5.598;2022-07-29T03:02:07;15.30;99.90
18930;DHT22;43305;52.186;5.598;2022-07-29T03:04:35;15.20;99.90
18930;DHT22;43305;52.186;5.598;2022-07-29T03:07:05;15.30;99.90
18930;DHT22;43305;52.186;5.598;2022-07-29T03:09:32;15.30;99.90
18930;DHT22;43305;52.186;5.598;2022-07-29T03:12:00;15.30;99.90
18930;DHT22;43305;52.186;5.598;2022-07-29T03:14:28;15.20;99.90
18930;DHT22;43305;52.186;5.598;2022-07-29T03:16:55;15.20;99.90
18930;DHT22;43305;52.186;5.598;2022-07-29T03:19:24;15.20;99.90
18930;DHT22;43305;52.186;5.598;2022-07-29T03:21:51;15.20;99.90
18930;DHT22;43305;52.186;5.598;2022-07-29T03:24:27;15.20;99.90
18930;DHT22;43305;52.186;5.598;2022-07-29T03:26:55;15.20;99.90
18930;DHT22;43305;52.186;5.598;2022-07-29T03:29:22;15.20;99.90
18930;DHT22;43305;52.186;5.598;2022-07-29T03:31:50;15.20;99.90
18930;DHT22;43305;52.186;5.598;2022-07-29T03:34:17;15.20;99.90
18930;DHT22;43305;52.186;5.598;2022-07-29T03:36:46;15.20;99.90
18930;DHT22;43305;52.186;5.598;2022-07-29T03:39:17;15.20;99.90
18930;DHT22;43305;52.186;5.598;2022-07-29T03:41:46;15.10;99.90
18930;DHT22;43305;52.186;5.598;2022-07-29T03:44:16;15.10;99.90
18930;DHT22;43305;52.186;5.598;2022-07-29T03:46:45;15.10;99.90
18930;DHT22;43305;52.186;5.598;2022-07-29T03:49:14;15.10;99.90
18930;DHT22;43305;52.186;5.598;2022-07-29T03:51:42;15.10;99.90
18930;DHT22;43305;52.186;5.598;2022-07-29T03:54:10;15.10;99.90
18930;DHT22;43305;52.186;5.598;2022-07-29T03:56:39;15.10;99.90
18930;DHT22;43305;52.186;5.598;2022-07-29T03:59:07;15.10;99.90
18930;DHT22;43305;52.186;5.598;2022-07-29T04:01:34;15.10;99.90
18930;DHT22;43305;52.186;5.598;2022-07-29T04:04:02;15.10;99.90
18930;DHT22;43305;52.186;5.598;2022-07-29T04:06:37;15.10;99.90
18930;DHT22;43305;52.186;5.598;2022-07-29T04:09:04;15.10;99.90
18930;DHT22;43305;52.186;5.598;2022-07-29T04:11:33;15.00;99.90
18930;DHT22;43305;52.186;5.598;2022-07-29T04:13:59;15.00;99.90
18930;DHT22;43305;52.186;5.598;2022-07-29T04:16:26;15.00;99.90
18930;DHT22;43305;52.186;5.598;2022-07-29T04:18:53;15.00;99.90
18930;DHT22;43305;52.186;5.598;2022-07-29T04:21:20;15.00;99.90
18930;DHT22;43305;52.186;5.598;2022-07-29T04:23:47;15.00;99.90
18930;DHT22;43305;52.186;5.598;2022-07-29T04:26:15;15.00;99.90
18930;DHT22;43305;52.186;5.598;2022-07-29T04:28:43;15.00;99.90
18930;DHT22;43305;52.186;5.598;2022-07-29T04:31:11;15.00;99.90
18930;DHT22;43305;52.186;5.598;2022-07-29T04:33:38;15.00;99.90
18930;DHT22;43305;52.186;5.598;2022-07-29T04:36:05;15.00;99.90
18930;DHT22;43305;52.186;5.598;2022-07-29T04:38:32;15.00;99.90
18930;DHT22;43305;52.186;5.598;2022-07-29T04:40:58;15.00;99.90
18930;DHT22;43305;52.186;5.598;2022-07-29T04:43:25;15.00;99.90
18930;DHT22;43305;52.186;5.598;2022-07-29T04:45:54;15.00;99.90
18930;DHT22;43305;52.186;5.598;2022-07-29T04:48:21;15.00;99.90
18930;DHT22;43305;52.186;5.598;2022-07-29T04:50:47;15.00;99.90
18930;DHT22;43305;52.186;5.598;2022-07-29T04:53:14;15.00;99.90
18930;DHT22;43305;52.186;5.598;2022-07-29T04:55:41;15.10;99.90
18930;DHT22;43305;52.186;5.598;2022-07-29T04:58:08;15.10;99.90
18930;DHT22;43305;52.186;5.598;2022-07-29T05:00:34;15.00;99.90
18930;DHT22;43305;52.186;5.598;2022-07-29T05:03:03;15.00;99.90
18930;DHT22;43305;52.186;5.598;2022-07-29T05:05:30;15.10;99.90
18930;DHT22;43305;52.186;5.598;2022-07-29T05:07:58;15.00;99.90
18930;DHT22;43305;52.186;5.598;2022-07-29T05:10:25;15.10;99.90
18930;DHT22;43305;52.186;5.598;2022-07-29T05:12:52;15.10;99.90
18930;DHT22;43305;52.186;5.598;2022-07-29T05:15:19;15.00;99.90
18930;DHT22;43305;52.186;5.598;2022-07-29T05:17:46;15.00;99.90
18930;DHT22;43305;52.186;5.598;2022-07-29T05:20:15;15.00;99.90
18930;DHT22;43305;52.186;5.598;2022-07-29T05:22:43;15.00;99.90
18930;DHT22;43305;52.186;5.598;2022-07-29T05:25:10;15.10;99.90
18930;DHT22;43305;52.186;5.598;2022-07-29T05:27:37;15.00;99.90
18930;DHT22;43305;52.186;5.598;2022-07-29T05:30:04;15.00;99.90
18930;DHT22;43305;52.186;5.598;2022-07-29T05:32:31;15.00;99.90
18930;DHT22;43305;52.186;5.598;2022-07-29T05:34:57;15.00;99.90
18930;DHT22;43305;52.186;5.598;2022-07-29T05:37:26;15.00;99.90
18930;DHT22;43305;52.186;5.598;2022-07-29T05:39:52;15.10;99.90
18930;DHT22;43305;52.186;5.598;2022-07-29T05:42:19;15.10;99.90
18930;DHT22;43305;52.186;5.598;2022-07-29T05:44:46;15.10;99.90
18930;DHT22;43305;52.186;5.598;2022-07-29T05:47:13;15.10;99.90
18930;DHT22;43305;52.186;5.598;2022-07-29T05:49:39;15.20;99.90
18930;DHT22;43305;52.186;5.598;2022-07-29T05:52:07;15.20;99.90
18930;DHT22;43305;52.186;5.598;2022-07-29T05:54:35;15.20;99.90
18930;DHT22;43305;52.186;5.598;2022-07-29T05:57:03;15.20;99.90
18930;DHT22;43305;52.186;5.598;2022-07-29T05:59:31;15.20;99.90
18930;DHT22;43305;52.186;5.598;2022-07-29T06:01:57;15.20;99.90
18930;DHT22;43305;52.186;5.598;2022-07-29T06:04:24;15.20;99.90
18930;DHT22;43305;52.186;5.598;2022-07-29T06:06:51;15.30;99.90
18930;DHT22;43305;52.186;5.598;2022-07-29T06:09:18;15.40;99.90
18930;DHT22;43305;52.186;5.598;2022-07-29T06:11:46;15.50;99.90
18930;DHT22;43305;52.186;5.598;2022-07-29T06:14:13;15.60;99.90
18930;DHT22;43305;52.186;5.598;2022-07-29T06:16:41;15.60;99.90
18930;DHT22;43305;52.186;5.598;2022-07-29T06:19:08;15.70;99.90
18930;DHT22;43305;52.186;5.598;2022-07-29T06:21:34;15.80;99.90
18930;DHT22;43305;52.186;5.598;2022-07-29T06:24:01;16.00;99.90
18930;DHT22;43305;52.186;5.598;2022-07-29T06:26:28;16.10;99.90
18930;DHT22;43305;52.186;5.598;2022-07-29T06:28:57;16.20;99.90
18930;DHT22;43305;52.186;5.598;2022-07-29T06:31:24;16.30;99.90
18930;DHT22;43305;52.186;5.598;2022-07-29T06:33:50;16.30;99.90
18930;DHT22;43305;52.186;5.598;2022-07-29T06:36:18;16.40;99.90
18930;DHT22;43305;52.186;5.598;2022-07-29T06:38:45;16.50;99.90
18930;DHT22;43305;52.186;5.598;2022-07-29T06:41:11;16.60;99.90
18930;DHT22;43305;52.186;5.598;2022-07-29T06:43:42;16.80;99.90
18930;DHT22;43305;52.186;5.598;2022-07-29T06:46:12;16.90;99.90
18930;DHT22;43305;52.186;5.598;2022-07-29T06:48:40;17.00;99.90
18930;DHT22;43305;52.186;5.598;2022-07-29T06:51:08;16.80;99.90
18930;DHT22;43305;52.186;5.598;2022-07-29T06:53:35;16.80;99.90
18930;DHT22;43305;52.186;5.598;2022-07-29T06:56:04;16.80;99.90
18930;DHT22;43305;52.186;5.598;2022-07-29T06:58:33;16.80;99.90
18930;DHT22;43305;52.186;5.598;2022-07-29T07:01:02;16.90;99.90
18930;DHT22;43305;52.186;5.598;2022-07-29T07:03:31;17.20;99.90
18930;DHT22;43305;52.186;5.598;2022-07-29T07:05:58;17.30;99.90
18930;DHT22;43305;52.186;5.598;2022-07-29T07:08:25;17.40;99.90
18930;DHT22;43305;52.186;5.598;2022-07-29T07:10:52;17.40;99.90
18930;DHT22;43305;52.186;5.598;2022-07-29T07:13:20;17.40;99.90
18930;DHT22;43305;52.186;5.598;2022-07-29T07:15:47;17.40;99.90
18930;DHT22;43305;52.186;5.598;2022-07-29T07:18:15;17.30;99.90
18930;DHT22;43305;52.186;5.598;2022-07-29T07:20:44;17.40;99.90
18930;DHT22;43305;52.186;5.598;2022-07-29T07:23:11;17.80;99.90
18930;DHT22;43305;52.186;5.598;2022-07-29T07:25:38;17.90;99.90
18930;DHT22;43305;52.186;5.598;2022-07-29T07:28:04;18.00;99.90
18930;DHT22;43305;52.186;5.598;2022-07-29T07:30:31;18.00;99.90
18930;DHT22;43305;52.186;5.598;2022-07-29T07:32:58;18.10;99.90
18930;DHT22;43305;52.186;5.598;2022-07-29T07:35:26;18.00;99.90
18930;DHT22;43305;52.186;5.598;2022-07-29T07:37:55;18.00;99.90
18930;DHT22;43305;52.186;5.598;2022-07-29T07:40:22;17.90;99.90
18930;DHT22;43305;52.186;5.598;2022-07-29T07:42:49;18.00;99.90
18930;DHT22;43305;52.186;5.598;2022-07-29T07:45:16;18.20;99.90
18930;DHT22;43305;52.186;5.598;2022-07-29T07:47:43;18.30;99.90
18930;DHT22;43305;52.186;5.598;2022-07-29T07:50:11;18.50;99.90
18930;DHT22;43305;52.186;5.598;2022-07-29T07:52:47;18.50;99.90
18930;DHT22;43305;52.186;5.598;2022-07-29T07:55:16;18.60;99.90
18930;DHT22;43305;52.186;5.598;2022-07-29T07:57:44;18.60;99.90
18930;DHT22;43305;52.186;5.598;2022-07-29T08:00:12;18.90;99.90
18930;DHT22;43305;52.186;5.598;2022-07-29T08:02:39;19.10;99.90
18930;DHT22;43305;52.186;5.598;2022-07-29T08:05:06;19.10;99.90
18930;DHT22;43305;52.186;5.598;2022-07-29T08:07:34;19.10;99.90
18930;DHT22;43305;52.186;5.598;2022-07-29T08:10:01;19.30;99.90
18930;DHT22;43305;52.186;5.598;2022-07-29T08:12:29;19.10;99.90
18930;DHT22;43305;52.186;5.598;2022-07-29T08:14:56;19.10;99.90
18930;DHT22;43305;52.186;5.598;2022-07-29T08:17:23;19.30;99.90
18930;DHT22;43305;52.186;5.598;2022-07-29T08:19:50;19.60;99.90
18930;DHT22;43305;52.186;5.598;2022-07-29T08:22:16;19.90;99.90
18930;DHT22;43305;52.186;5.598;2022-07-29T08:24:43;20.20;99.90
18930;DHT22;43305;52.186;5.598;2022-07-29T08:27:13;20.20;99.90
18930;DHT22;43305;52.186;5.598;2022-07-29T08:29:41;20.50;99.90
18930;DHT22;43305;52.186;5.598;2022-07-29T08:32:08;20.50;99.90
18930;DHT22;43305;52.186;5.598;2022-07-29T08:34:35;20.40;99.90
18930;DHT22;43305;52.186;5.598;2022-07-29T08:37:02;20.40;99.90
18930;DHT22;43305;52.186;5.598;2022-07-29T08:39:29;20.40;99.90
18930;DHT22;43305;52.186;5.598;2022-07-29T08:41:55;20.30;99.90
18930;DHT22;43305;52.186;5.598;2022-07-29T08:44:22;20.20;99.90
18930;DHT22;43305;52.186;5.598;2022-07-29T08:46:51;20.20;99.90
18930;DHT22;43305;52.186;5.598;2022-07-29T08:49:18;20.10;99.90
18930;DHT22;43305;52.186;5.598;2022-07-29T08:51:45;20.20;99.90
18930;DHT22;43305;52.186;5.598;2022-07-29T08:54:16;20.30;99.90
18930;DHT22;43305;52.186;5.598;2022-07-29T08:56:45;20.30;99.90
18930;DHT22;43305;52.186;5.598;2022-07-29T08:59:19;20.40;99.90
18930;DHT22;43305;52.186;5.598;2022-07-29T09:01:54;20.60;99.90
18930;DHT22;43305;52.186;5.598;2022-07-29T09:04:24;20.70;99.90
18930;DHT22;43305;52.186;5.598;2022-07-29T09:06:54;20.80;99.90
18930;DHT22;43305;52.186;5.598;2022-07-29T09:09:23;20.80;99.90
18930;DHT22;43305;52.186;5.598;2022-07-29T09:11:50;20.70;99.90
18930;DHT22;43305;52.186;5.598;2022-07-29T09:14:18;20.60;99.90
18930;DHT22;43305;52.186;5.598;2022-07-29T09:16:47;20.50;99.90
18930;DHT22;43305;52.186;5.598;2022-07-29T09:19:22;20.50;99.90
18930;DHT22;43305;52.186;5.598;2022-07-29T09:21:51;20.40;99.90
18930;DHT22;43305;52.186;5.598;2022-07-29T09:24:28;20.50;99.90
18930;DHT22;43305;52.186;5.598;2022-07-29T09:27:02;20.50;99.90
18930;DHT22;43305;52.186;5.598;2022-07-29T09:29:29;20.50;99.90
18930;DHT22;43305;52.186;5.598;2022-07-29T09:31:56;20.50;99.90
18930;DHT22;43305;52.186;5.598;2022-07-29T09:34:26;20.50;99.90
18930;DHT22;43305;52.186;5.598;2022-07-29T09:36:54;20.60;99.90
18930;DHT22;43305;52.186;5.598;2022-07-29T09:39:28;20.50;99.90
18930;DHT22;43305;52.186;5.598;2022-07-29T09:41:57;20.60;99.90
18930;DHT22;43305;52.186;5.598;2022-07-29T09:44:25;20.40;99.90
18930;DHT22;43305;52.186;5.598;2022-07-29T09:47:01;20.40;99.90
18930;DHT22;43305;52.186;5.598;2022-07-29T09:49:32;20.40;99.90
18930;DHT22;43305;52.186;5.598;2022-07-29T09:52:03;20.50;99.90
18930;DHT22;43305;52.186;5.598;2022-07-29T09:54:30;20.50;99.90
18930;DHT22;43305;52.186;5.598;2022-07-29T09:57:02;20.60;99.90
18930;DHT22;43305;52.186;5.598;2022-07-29T09:59:29;20.60;99.90
18930;DHT22;43305;52.186;5.598;2022-07-29T10:01:56;20.70;99.90
18930;DHT22;43305;52.186;5.598;2022-07-29T10:04:23;20.90;99.90
18930;DHT22;43305;52.186;5.598;2022-07-29T10:07:00;21.10;99.90
18930;DHT22;43305;52.186;5.598;2022-07-29T10:09:27;21.30;99.90
18930;DHT22;43305;52.186;5.598;2022-07-29T10:12:05;21.40;99.90
18930;DHT22;43305;52.186;5.598;2022-07-29T10:14:33;21.40;99.90
18930;DHT22;43305;52.186;5.598;2022-07-29T10:17:00;21.40;99.90
18930;DHT22;43305;52.186;5.598;2022-07-29T10:19:30;21.30;99.90
18930;DHT22;43305;52.186;5.598;2022-07-29T10:22:00;21.10;99.90
18930;DHT22;43305;52.186;5.598;2022-07-29T10:24:29;21.20;99.90
18930;DHT22;43305;52.186;5.598;2022-07-29T10:26:58;21.40;99.90
18930;DHT22;43305;52.186;5.598;2022-07-29T10:29:26;21.70;99.90
18930;DHT22;43305;52.186;5.598;2022-07-29T10:32:05;21.80;99.90
18930;DHT22;43305;52.186;5.598;2022-07-29T10:34:49;22.10;99.90
18930;DHT22;43305;52.186;5.598;2022-07-29T10:37:25;22.20;99.90
18930;DHT22;43305;52.186;5.598;2022-07-29T10:39:59;22.30;99.90
18930;DHT22;43305;52.186;5.598;2022-07-29T10:42:47;22.70;99.90
18930;DHT22;43305;52.186;5.598;2022-07-29T10:45:17;22.90;99.90
18930;DHT22;43305;52.186;5.598;2022-07-29T10:47:45;22.90;99.90
18930;DHT22;43305;52.186;5.598;2022-07-29T10:50:12;22.80;99.90
18930;DHT22;43305;52.186;5.598;2022-07-29T10:52:56;22.90;99.90
18930;DHT22;43305;52.186;5.598;2022-07-29T10:55:38;23.10;99.90
18930;DHT22;43305;52.186;5.598;2022-07-29T10:58:12;23.10;99.90
18930;DHT22;43305;52.186;5.598;2022-07-29T11:00:40;23.00;99.90
18930;DHT22;43305;52.186;5.598;2022-07-29T11:03:07;22.90;99.90
18930;DHT22;43305;52.186;5.598;2022-07-29T11:05:52;22.90;99.90
18930;DHT22;43305;52.186;5.598;2022-07-29T11:08:23;22.90;99.90
18930;DHT22;43305;52.186;5.598;2022-07-29T11:10:53;22.90;99.90
18930;DHT22;43305;52.186;5.598;2022-07-29T11:13:49;23.10;99.90
18930;DHT22;43305;52.186;5.598;2022-07-29T11:16:18;22.90;99.90
18930;DHT22;43305;52.186;5.598;2022-07-29T11:21:46;22.90;99.90
18930;DHT22;43305;52.186;5.598;2022-07-29T11:24:16;23.00;99.90
18930;DHT22;43305;52.186;5.598;2022-07-29T11:27:06;23.20;99.90
18930;DHT22;43305;52.186;5.598;2022-07-29T11:29:36;23.20;99.90
18930;DHT22;43305;52.186;5.598;2022-07-29T11:32:10;23.20;99.90
18930;DHT22;43305;52.186;5.598;2022-07-29T11:34:39;23.20;99.90
18930;DHT22;43305;52.186;5.598;2022-07-29T11:37:18;23.30;99.90
18930;DHT22;43305;52.186;5.598;2022-07-29T11:39:47;23.50;99.90
18930;DHT22;43305;52.186;5.598;2022-07-29T11:42:37;23.70;99.90
18930;DHT22;43305;52.186;5.598;2022-07-29T11:45:08;23.80;99.90
18930;DHT22;43305;52.186;5.598;2022-07-29T11:47:41;24.00;99.90
18930;DHT22;43305;52.186;5.598;2022-07-29T11:50:13;24.00;99.90
18930;DHT22;43305;52.186;5.598;2022-07-29T11:52:42;24.10;99.90
18930;DHT22;43305;52.186;5.598;2022-07-29T11:55:12;24.10;99.90
18930;DHT22;43305;52.186;5.598;2022-07-29T11:57:48;24.00;99.90
18930;DHT22;43305;52.186;5.598;2022-07-29T12:00:23;23.90;99.90
18930;DHT22;43305;52.186;5.598;2022-07-29T12:02:51;23.90;99.90
18930;DHT22;43305;52.186;5.598;2022-07-29T12:05:19;23.80;99.90
18930;DHT22;43305;52.186;5.598;2022-07-29T12:07:46;23.70;99.90
18930;DHT22;43305;52.186;5.598;2022-07-29T12:10:14;23.90;99.90
18930;DHT22;43305;52.186;5.598;2022-07-29T12:12:42;24.00;99.90
18930;DHT22;43305;52.186;5.598;2022-07-29T12:15:18;24.00;99.90
18930;DHT22;43305;52.186;5.598;2022-07-29T12:17:50;24.20;99.90
18930;DHT22;43305;52.186;5.598;2022-07-29T12:20:23;24.20;99.90
18930;DHT22;43305;52.186;5.598;2022-07-29T12:22:52;24.40;99.90
18930;DHT22;43305;52.186;5.598;2022-07-29T12:25:21;24.30;99.90
18930;DHT22;43305;52.186;5.598;2022-07-29T12:27:58;24.00;99.90
18930;DHT22;43305;52.186;5.598;2022-07-29T12:30:36;23.80;99.90
18930;DHT22;43305;52.186;5.598;2022-07-29T12:33:13;23.90;99.90
18930;DHT22;43305;52.186;5.598;2022-07-29T12:35:41;24.20;99.90
18930;DHT22;43305;52.186;5.598;2022-07-29T12:38:10;24.20;99.90
18930;DHT22;43305;52.186;5.598;2022-07-29T12:40:38;24.30;99.90
18930;DHT22;43305;52.186;5.598;2022-07-29T12:43:08;24.40;99.90
18930;DHT22;43305;52.186;5.598;2022-07-29T12:45:36;24.60;99.90
18930;DHT22;43305;52.186;5.598;2022-07-29T12:48:08;24.60;99.90
18930;DHT22;43305;52.186;5.598;2022-07-29T12:50:52;24.70;99.90
18930;DHT22;43305;52.186;5.598;2022-07-29T12:53:19;24.90;99.90
18930;DHT22;43305;52.186;5.598;2022-07-29T12:55:47;25.00;99.90
18930;DHT22;43305;52.186;5.598;2022-07-29T12:58:27;24.90;99.90
18930;DHT22;43305;52.186;5.598;2022-07-29T13:01:04;25.10;99.90
18930;DHT22;43305;52.186;5.598;2022-07-29T13:03:48;25.30;99.90
18930;DHT22;43305;52.186;5.598;2022-07-29T13:06:34;25.00;99.90
18930;DHT22;43305;52.186;5.598;2022-07-29T13:09:07;25.30;99.90
18930;DHT22;43305;52.186;5.598;2022-07-29T13:11:36;25.40;99.90
18930;DHT22;43305;52.186;5.598;2022-07-29T13:14:04;25.40;99.90
18930;DHT22;43305;52.186;5.598;2022-07-29T13:16:32;25.40;99.90
18930;DHT22;43305;52.186;5.598;2022-07-29T13:19:09;25.50;99.90
18930;DHT22;43305;52.186;5.598;2022-07-29T13:21:38;25.60;99.90
18930;DHT22;43305;52.186;5.598;2022-07-29T13:24:06;25.70;99.90
18930;DHT22;43305;52.186;5.598;2022-07-29T13:26:34;25.90;99.90
18930;DHT22;43305;52.186;5.598;2022-07-29T13:29:02;25.90;99.90
18930;DHT22;43305;52.186;5.598;2022-07-29T13:31:29;25.70;99.90
18930;DHT22;43305;52.186;5.598;2022-07-29T13:33:58;25.60;99.90
18930;DHT22;43305;52.186;5.598;2022-07-29T13:36:25;25.20;99.90
18930;DHT22;43305;52.186;5.598;2022-07-29T13:38:54;25.40;99.90
18930;DHT22;43305;52.186;5.598;2022-07-29T13:41:21;25.40;99.90
18930;DHT22;43305;52.186;5.598;2022-07-29T13:43:48;25.60;99.90
18930;DHT22;43305;52.186;5.598;2022-07-29T13:46:15;25.90;99.90
18930;DHT22;43305;52.186;5.598;2022-07-29T13:48:42;26.00;99.90
18930;DHT22;43305;52.186;5.598;2022-07-29T13:51:09;25.70;99.90
18930;DHT22;43305;52.186;5.598;2022-07-29T13:53:37;25.90;99.90
18930;DHT22;43305;52.186;5.598;2022-07-29T13:56:05;26.30;99.90
18930;DHT22;43305;52.186;5.598;2022-07-29T13:58:32;26.60;99.90
18930;DHT22;43305;52.186;5.598;2022-07-29T14:01:03;26.50;99.90
18930;DHT22;43305;52.186;5.598;2022-07-29T14:03:32;26.60;99.90
18930;DHT22;43305;52.186;5.598;2022-07-29T14:06:00;26.90;99.90
18930;DHT22;43305;52.186;5.598;2022-07-29T14:08:27;27.20;99.90
18930;DHT22;43305;52.186;5.598;2022-07-29T14:10:53;27.40;99.90
18930;DHT22;43305;52.186;5.598;2022-07-29T14:13:22;27.50;99.90
18930;DHT22;43305;52.186;5.598;2022-07-29T14:15:48;27.60;99.90
18930;DHT22;43305;52.186;5.598;2022-07-29T14:18:15;28.10;99.90
18930;DHT22;43305;52.186;5.598;2022-07-29T14:20:42;28.60;99.90
18930;DHT22;43305;52.186;5.598;2022-07-29T14:23:09;28.80;99.90
18930;DHT22;43305;52.186;5.598;2022-07-29T14:25:36;28.90;99.90
18930;DHT22;43305;52.186;5.598;2022-07-29T14:28:04;29.30;99.90
18930;DHT22;43305;52.186;5.598;2022-07-29T14:30:35;29.70;99.90
18930;DHT22;43305;52.186;5.598;2022-07-29T14:33:05;29.50;99.90
18930;DHT22;43305;52.186;5.598;2022-07-29T14:35:32;29.80;99.90
18930;DHT22;43305;52.186;5.598;2022-07-29T14:37:59;29.70;99.90
18930;DHT22;43305;52.186;5.598;2022-07-29T14:40:26;29.00;99.90
18930;DHT22;43305;52.186;5.598;2022-07-29T14:42:55;29.10;99.90
18930;DHT22;43305;52.186;5.598;2022-07-29T14:45:22;29.60;99.90
18930;DHT22;43305;52.186;5.598;2022-07-29T14:47:51;29.70;99.90
18930;DHT22;43305;52.186;5.598;2022-07-29T14:50:17;30.20;99.90
18930;DHT22;43305;52.186;5.598;2022-07-29T14:52:45;30.10;99.90
18930;DHT22;43305;52.186;5.598;2022-07-29T14:55:11;29.90;99.90
18930;DHT22;43305;52.186;5.598;2022-07-29T14:57:44;29.60;99.90
18930;DHT22;43305;52.186;5.598;2022-07-29T15:00:11;28.70;99.90
18930;DHT22;43305;52.186;5.598;2022-07-29T15:02:38;28.70;99.90
18930;DHT22;43305;52.186;5.598;2022-07-29T15:05:07;28.60;99.90
18930;DHT22;43305;52.186;5.598;2022-07-29T15:07:34;28.50;99.90
18930;DHT22;43305;52.186;5.598;2022-07-29T15:10:01;28.80;99.90
18930;DHT22;43305;52.186;5.598;2022-07-29T15:12:29;29.00;99.90
18930;DHT22;43305;52.186;5.598;2022-07-29T15:14:56;29.10;99.90
18930;DHT22;43305;52.186;5.598;2022-07-29T15:17:24;29.10;99.90
18930;DHT22;43305;52.186;5.598;2022-07-29T15:19:54;28.70;99.90
18930;DHT22;43305;52.186;5.598;2022-07-29T15:22:22;28.50;99.90
18930;DHT22;43305;52.186;5.598;2022-07-29T15:24:50;28.50;99.90
18930;DHT22;43305;52.186;5.598;2022-07-29T15:27:19;28.90;99.90
18930;DHT22;43305;52.186;5.598;2022-07-29T15:29:46;29.50;99.90
18930;DHT22;43305;52.186;5.598;2022-07-29T15:32:13;30.00;99.90
18930;DHT22;43305;52.186;5.598;2022-07-29T15:34:40;29.50;99.90
18930;DHT22;43305;52.186;5.598;2022-07-29T15:37:08;29.70;99.90
18930;DHT22;43305;52.186;5.598;2022-07-29T15:39:46;29.60;99.90
18930;DHT22;43305;52.186;5.598;2022-07-29T15:42:12;29.30;99.90
18930;DHT22;43305;52.186;5.598;2022-07-29T15:44:39;29.60;99.90
18930;DHT22;43305;52.186;5.598;2022-07-29T15:47:06;29.30;99.90